Home > Products > Valid Products > TAF

000
FTUS43 KJKL 021500 AAA
TAFLOZ
TAF AMD
KLOZ 021506Z 0215/0312 24008KT P6SM SCT050 BKN250
     FM021600 25004KT P6SM VCTS SCT040CB BKN100
      TEMPO 0220/0222 VRB20G30KT 3SM TSRA BKN020CB OVC030
     FM030100 VRB03KT P6SM SCT050
     FM030700 00000KT 5SM BR FEW050
     FM030900 00000KT 1/2SM FG OVC002=



000
FTUS43 KJKL 021500 AAA
TAFSME
TAF AMD
KSME 021505Z 0215/0312 24008KT P6SM VCTS SCT040CB BKN100
      TEMPO 0219/0221 VRB20G30KT 3SM TSRA BKN020CB OVC030
     FM030000 VRB03KT P6SM SCT050
     FM030700 00000KT 5SM BR FEW050
     FM030900 00000KT 1/2SM FG OVC002=



000
FTUS43 KJKL 021500 AAA
TAFJKL
TAF AMD
KJKL 021502Z 0215/0312 23005KT P6SM SCT050 BKN250
     FM021600 25004KT P6SM VCTS SCT040CB BKN100
      TEMPO 0220/0222 VRB20G30KT 3SM TSRA BKN020CB OVC030
     FM030000 VRB03KT P6SM SCT050
     FM031000 00000KT 1SM BR BKN002=



000
FTUS43 KJKL 021100
TAFLOZ
TAF
KLOZ 021120Z 0212/0312 24008KT P6SM SCT050 BKN250
     FM022200 24006KT P6SM VCTS BKN040CB
     FM030100 VRB03KT P6SM SCT050
     FM030700 00000KT 5SM BR FEW050
     FM030900 00000KT 1/2SM FG OVC002=



000
FTUS43 KJKL 021100
TAFSME
TAF
KSME 021120Z 0212/0312 24008KT P6SM SCT050 BKN250
     FM022100 24010G16KT P6SM VCTS BKN040CB
     FM030000 VRB03KT P6SM SCT050
     FM030700 00000KT 5SM BR FEW050
     FM030900 00000KT 1/2SM FG OVC002=



000
FTUS43 KJKL 021100
TAFJKL
TAF
KJKL 021120Z 0212/0312 23005KT P6SM SCT050 BKN250
     FM022200 25004KT P6SM VCTS BKN040CB
     FM030000 VRB03KT P6SM SCT050
     FM031000 00000KT 1SM BR BKN002=



000
FTUS43 KJKL 020500
TAFJKL
TAF
KJKL 020523Z 0206/0306 VRB03KT P6SM SCT050
     FM021300 24005KT P6SM SCT040 BKN250
     FM021900 25008KT P6SM VCTS BKN040CB
     FM030000 VRB03KT P6SM SCT050=



000
FTUS43 KJKL 020500
TAFSME
TAF
KSME 020523Z 0206/0306 23005KT P6SM SCT050
     FM021300 22005KT P6SM SCT040 BKN250
     FM021900 24010G16KT P6SM VCTS BKN040CB
     FM030000 VRB03KT P6SM SCT050=



000
FTUS43 KJKL 020500
TAFLOZ
TAF
KLOZ 020523Z 0206/0306 22005KT P6SM SCT050
     FM021300 23004KT P6SM SCT040 BKN250
     FM021900 24008G16KT P6SM VCTS BKN040CB
     FM030000 VRB03KT P6SM SCT050=



000
FTUS43 KJKL 012300
TAFLOZ
TAF
KLOZ 012327Z 0200/0224 22005KT P6SM SCT050
     FM020900 22003KT 4SM BR BKN250
     FM021300 23004KT P6SM SCT040 BKN250
     FM021900 24008G16KT P6SM VCTS BKN040CB=



000
FTUS43 KJKL 012300
TAFSME
TAF
KSME 012327Z 0200/0224 23005KT P6SM SCT050
     FM020800 21003KT 4SM BR BKN250
     FM021300 22005KT P6SM SCT040 BKN250
     FM021900 24008G16KT P6SM VCTS BKN040CB=



000
FTUS43 KJKL 012300
TAFJKL
TAF
KJKL 012327Z 0200/0224 VRB03KT P6SM SCT050
     FM021100 VRB03KT 5SM BR BKN250
     FM021300 24005KT P6SM SCT040 BKN250
     FM021900 25006KT P6SM VCTS BKN040CB=



000
FTUS43 KJKL 011700
TAFSME
TAF
KSME 011734Z 0118/0218 24010G16KT P6SM SCT030 SCT040
      TEMPO 0119/0120 VRB15G30KT 2SM -TSRA BKN025CB OVC050
     FM020000 VRB03KT P6SM SCT050 BKN250
     FM020700 18002KT 4SM BR BKN250
     FM020900 18002KT 2SM BR BKN250
     FM021200 17002KT P6SM BKN250
     FM021500 25006KT P6SM VCSH SCT050 BKN100=



000
FTUS43 KJKL 011700
TAFJKL
TAF
KJKL 011734Z 0118/0218 24008KT P6SM SCT035
      TEMPO 0119/0121 VRB15G30KT 2SM -TSRA BKN025CB OVC050
     FM020000 VRB03KT P6SM SCT050 BKN250
     FM020700 18002KT 4SM BR BKN250
     FM020900 18002KT 2SM BR BKN250
     FM021200 17002KT P6SM BKN250
     FM021500 25006KT P6SM VCSH SCT050 BKN100=



000
FTUS43 KJKL 011700
TAFLOZ
TAF
KLOZ 011734Z 0118/0218 25010G18KT P6SM SCT040
      TEMPO 0119/0120 VRB15G30KT 2SM -TSRA BKN025CB OVC050
     FM020000 VRB03KT P6SM SCT050 BKN250
     FM020700 18002KT 4SM BR BKN250
     FM020900 18002KT 2SM BR BKN250
     FM021200 17002KT P6SM BKN250
     FM021500 25006KT P6SM VCSH SCT050 BKN100=



000
FTUS43 KJKL 011100
TAFLOZ
TAF
KLOZ 011130Z 0112/0212 20004KT P6SM BKN022
     FM011230 21006KT P6SM SCT025 BKN040
     FM011500 24012G18KT P6SM SCT040
     FM020000 VRB03KT P6SM SCT200=



000
FTUS43 KJKL 011100
TAFSME
TAF
KSME 011130Z 0112/0212 21003KT P6SM SCT018 BKN060
     FM011500 24012G20KT P6SM SCT040
     FM020000 VRB03KT P6SM SCT200=



000
FTUS43 KJKL 011100
TAFJKL
TAF
KJKL 011130Z 0112/0212 VRB03KT P6SM BKN012
     FM011400 22004KT P6SM SCT015 BKN025
     FM011600 24008KT P6SM SCT035
     FM020000 VRB03KT P6SM SCT200=



000
FTUS43 KJKL 010900 AAA
TAFSME
TAF AMD
KSME 010901Z 0109/0206 21003KT P6SM BKN018
     FM011500 24012G20KT P6SM SCT040=



000
FTUS43 KJKL 010900 AAA
TAFLOZ
TAF AMD
KLOZ 010901Z 0109/0206 20004KT P6SM BKN018
     FM011500 24012KT P6SM SCT040=



000
FTUS43 KJKL 010500
TAFJKL
TAF
KJKL 010539Z 0106/0206 VRB03KT P6SM BKN018
     FM011400 00000KT P6SM SCT010 BKN025
     FM011600 24008KT P6SM SCT035=



000
FTUS43 KJKL 010500
TAFSME
TAF
KSME 010539Z 0106/0206 21003KT P6SM SCT040
     FM011500 24012G20KT P6SM SCT040=



000
FTUS43 KJKL 010500
TAFLOZ
TAF
KLOZ 010539Z 0106/0206 20004KT P6SM SCT040
     FM011500 24012KT P6SM SCT040=



000
FTUS43 KJKL 010200 AAA
TAFLOZ
TAF AMD
KLOZ 010247Z 0103/0124 20006KT P6SM SCT025 BKN050
     FM010700 21004KT 2SM BR SCT020 BKN050
     FM011000 VRB03KT 1SM BR BKN008 BKN025
     FM011500 24008KT P6SM SCT035=



000
FTUS43 KJKL 010200 AAA
TAFJKL
TAF AMD
KJKL 010246Z 0103/0124 VRB03KT P6SM SCT022 BKN050
     FM010700 00000KT 3SM BR BKN006 BKN022
     FM011400 00000KT P6SM SCT010 BKN025
     FM011600 VRB04KT P6SM SCT035=



000
FTUS43 KJKL 010100 AAA
TAFSME
TAF AMD
KSME 010114Z 0101/0124 21003KT P6SM SCT025 BKN050
     FM010500 21003KT 2SM BR SCT020 BKN050
     FM010700 VRB03KT 1SM BR BKN008 BKN026
     FM011500 24008KT P6SM SCT035=



000
FTUS43 KJKL 312300
TAFSME
TAF
KSME 312331Z 0100/0124 VRB03KT P6SM SCT025 BKN050
      TEMPO 0100/0103 5SM -RA BKN020 OVC050
     FM010400 21004KT 2SM BR SCT020 BKN050
     FM010700 VRB03KT 1SM BR BKN008 BKN026
     FM011500 24008KT P6SM SCT035=



000
FTUS43 KJKL 312300
TAFJKL
TAF
KJKL 312331Z 0100/0124 VRB03KT P6SM SCT022 OVC050
      TEMPO 0102/0105 5SM -RA BKN022 OVC050
     FM010500 00000KT 3SM BR BKN006 BKN022
     FM011400 00000KT P6SM SCT010 BKN025
     FM011600 VRB04KT P6SM SCT035=



000
FTUS43 KJKL 312300
TAFLOZ
TAF
KLOZ 312331Z 0100/0124 20006KT P6SM SCT025 BKN050
      TEMPO 0101/0104 5SM -RA BKN020 OVC050
     FM010400 21004KT 2SM BR SCT020 BKN050
     FM010700 VRB03KT 1SM BR BKN008 BKN025
     FM011500 24008KT P6SM SCT035=



000
FTUS43 KJKL 312200 AAD
TAFJKL
TAF AMD
KJKL 312205Z 3122/0118 VRB04KT 1SM +RA BR VCTS FEW009 BKN022CB
      OVC050
     FM312330 19003KT P6SM SCT025 OVC050
      TEMPO 0108/0112 00000KT 3SM BR BKN005
     FM011300 00000KT P6SM SCT010 BKN025=



000
FTUS43 KJKL 312000 AAC
TAFSME
TAF AMD
KSME 312046Z 3121/0118 23007G14KT P6SM VCTS BKN035CB OVC050
     FM312300 21003KT P6SM SCT025 OVC050
      TEMPO 0108/0112 00000KT 3SM BR BKN005
     FM011300 00000KT P6SM SCT010 BKN025=



000
FTUS43 KJKL 311900 AAC
TAFJKL
TAF AMD
KJKL 311917Z 3119/0118 17003KT P6SM -RA VCTS FEW009 BKN027CB OVC035
     FM312300 19003KT P6SM SCT025 OVC050
      TEMPO 0108/0112 00000KT 3SM BR BKN005
     FM011300 00000KT P6SM SCT010 BKN025=



000
FTUS43 KJKL 311900 AAB
TAFSME
TAF AMD
KSME 311917Z 3119/0118 26007KT P6SM VCTS BKN029CB OVC035
     FM312300 21003KT P6SM SCT025 OVC050
      TEMPO 0108/0112 00000KT 3SM BR BKN005
     FM011300 00000KT P6SM SCT010 BKN025=



000
FTUS43 KJKL 311800 AAB
TAFJKL
TAF AMD
KJKL 311827Z 3118/0118 VRB03KT P6SM VCTS SCT007 SCT030CB BKN060
     FM312300 19003KT P6SM SCT025 OVC050
      TEMPO 0108/0112 00000KT 3SM BR BKN005
     FM011300 00000KT P6SM SCT010 BKN025=



000
FTUS43 KJKL 311800 AAA
TAFSME
TAF AMD
KSME 311827Z 3118/0118 22009G14KT P6SM VCTS BKN026CB OVC030
     FM312300 21003KT P6SM SCT025 OVC050
      TEMPO 0108/0112 00000KT 3SM BR BKN005
     FM011300 00000KT P6SM SCT010 BKN025=



000
FTUS43 KJKL 311700 AAA
TAFJKL
TAF AMD
KJKL 311744Z 3118/0118 VRB03KT P6SM -RA VCTS BKN006 BKN060CB OVC080
     FM312300 19003KT P6SM SCT025 OVC050
      TEMPO 0108/0112 00000KT 3SM BR BKN005
     FM011300 00000KT P6SM SCT010 BKN025=



000
FTUS43 KJKL 311700
TAFJKL
TAF
KJKL 311720Z 3118/0118 VRB04KT P6SM -RA VCTS SCT004 BKN035CB OVC090
     FM312300 19003KT P6SM SCT025 OVC050
      TEMPO 0108/0112 00000KT 3SM BR BKN005
     FM011300 00000KT P6SM SCT010 BKN025=



000
FTUS43 KJKL 311700
TAFSME
TAF
KSME 311720Z 3118/0118 21003KT P6SM VCTS SCT026CB SCT045 OVC090
     FM312300 21003KT P6SM SCT025 OVC050
      TEMPO 0108/0112 00000KT 3SM BR BKN005
     FM011300 00000KT P6SM SCT010 BKN025=



000
FTUS43 KJKL 311700
TAFLOZ
TAF
KLOZ 311720Z 3118/0118 20008KT P6SM VCTS FEW023 SCT030CB BKN080
     FM312300 19003KT P6SM SCT025 OVC050
      TEMPO 0108/0112 00000KT 3SM BR BKN005
     FM011300 00000KT P6SM SCT010 BKN025=



000
FTUS43 KJKL 311500 AAD
TAFJKL
TAF AMD
KJKL 311557Z 3116/0112 VRB03KT 2SM -RA BR VCTS BKN002 OVC040CB
     FM311800 20004KT 4SM -SHRA BR OVC025
     FM312300 19003KT P6SM SCT025 OVC050=



000
FTUS43 KJKL 311500 AAC
TAFJKL
TAF AMD
KJKL 311553Z 3116/0112 VRB03KT 1 1/2SM -RA BR VCTS SCT002CB BKN006
      OVC040
     FM311800 20004KT 4SM -SHRA BR OVC025
     FM312300 19003KT P6SM SCT025 OVC050=



000
FTUS43 KJKL 311500 AAB
TAFJKL
TAF AMD
KJKL 311546Z 3116/0112 00000KT 2SM RA BR VCTS BKN003 BKN006
      OVC040CB
     FM311800 20004KT 4SM -SHRA BR OVC025
     FM312300 19003KT P6SM SCT025 OVC050=



000
FTUS43 KJKL 311500 AAA
TAFJKL
TAF AMD
KJKL 311528Z 3115/0112 00000KT 2SM RA BR VCTS BKN005 BKN035CB
      OVC070
     FM311800 20004KT 4SM -SHRA BR OVC025
     FM312300 19003KT P6SM SCT025 OVC050=



000
FTUS43 KJKL 311500 AAB
TAFLOZ
TAF AMD
KLOZ 311512Z 3115/0112 18004KT P6SM VCTS SCT028CB OVC035
     FM311800 20006KT 4SM -SHRA VCTS OVC025CB
     FM312300 19003KT P6SM SCT025 OVC050=



000
FTUS43 KJKL 311400 AAA
TAFLOZ
TAF AMD
KLOZ 311424Z 3114/0112 25003KT 1 1/2SM -RA BR VCTS FEW022CB BKN040
      OVC070
     FM311800 20006KT 4SM -SHRA VCTS OVC025CB
     FM312300 19003KT P6SM SCT025 OVC050=



000
FTUS43 KJKL 311100
TAFJKL
TAF
KJKL 311139Z 3112/0112 19003KT P6SM VCSH OVC040
     FM311400 19002KT 6SM -SHRA BR VCTS OVC035CB
     FM311800 20004KT 4SM -SHRA BR OVC025
     FM312300 19003KT P6SM SCT025 OVC050=



000
FTUS43 KJKL 311100
TAFLOZ
TAF
KLOZ 311139Z 3112/0112 VRB03KT P6SM VCSH SCT040 OVC080
     FM311400 19002KT 6SM -SHRA BR VCTS OVC035CB
     FM311800 20006KT 4SM -SHRA VCTS OVC025CB
     FM312300 19003KT P6SM SCT025 OVC050=



000
FTUS43 KJKL 311100
TAFSME
TAF
KSME 311139Z 3112/0112 19005KT 6SM -SHRA BR SCT040 OVC080
     FM311400 19005KT 6SM -SHRA BR VCTS OVC035CB
     FM311700 20006KT 4SM -SHRA VCTS OVC025CB
     FM312300 21003KT P6SM SCT025 OVC050=



000
FTUS43 KJKL 310700 AAA
TAFJKL
TAF AMD
KJKL 310743Z 3108/0106 19003KT 6SM BR OVC050
     FM311400 19002KT 6SM -SHRA BR VCTS OVC025CB
     FM312300 19003KT P6SM SCT025 OVC050=



000
FTUS43 KJKL 310500 RRA
TAFJKL
TAF
KJKL 310541Z 3106/0106 VRB03KT 2SM -SHRA BR SCT005 BKN100
     FM310630 19003KT 5SM -SHRA BR OVC040
     FM311400 19002KT 6SM -SHRA BR VCTS OVC025CB
     FM312300 19003KT P6SM SCT025 OVC050=



000
FTUS43 KJKL 310500 RRA
TAFLOZ
TAF
KLOZ 310541Z 3106/0106 VRB03KT 6SM -SHRA BR BKN040 OVC080
     FM311400 19002KT 6SM -SHRA BR VCTS OVC025CB
     FM312300 19003KT P6SM SCT025 OVC050=



000
FTUS43 KJKL 310500 RRA
TAFSME
TAF
KSME 310541Z 3106/0106 VRB03KT 6SM -SHRA BR SCT025 BKN040 OVC080
     FM311400 19002KT 6SM -SHRA BR VCTS OVC025CB
     FM312300 19003KT P6SM SCT025 OVC050=



000
FTUS43 KJKL 310400 AAB
TAFSME
TAF AMD
KSME 310403Z 3104/3124 VRB03KT 6SM -SHRA BR VCTS SCT025 BKN040CB
      OVC080
      TEMPO 3104/3106 2SM SHRA BR BKN015 BKN040
     FM310600 18003KT 4SM -SHRA BR VCTS SCT015 BKN025CB OVC040=



000
FTUS43 KJKL 310200 AAA
TAFJKL
TAF AMD
KJKL 310255Z 3103/3124 VRB03KT 6SM -SHRA BR VCTS SCT040CB OVC070
      TEMPO 3103/3106 2SM +TSRA BR BKN015CB
     FM310600 19003KT 4SM -SHRA BR VCTS SCT015 BKN025CB OVC040=



000
FTUS43 KJKL 310100 CCA
TAFSME
TAF COR
KSME 310158Z 3102/3124 VRB03KT 6SM -SHRA BR VCTS SCT015 BKN040CB
      OVC080
      TEMPO 3102/3104 4SM TSRA BR BKN015CB
     FM310600 18003KT 4SM -SHRA BR VCTS SCT015 BKN025CB OVC040=



000
FTUS43 KJKL 310100 AAA
TAFLOZ
TAF AMD
KLOZ 310150Z 3102/3124 VRB03KT 6SM -SHRA BR VCTS BKN040CB OVC080
      TEMPO 3102/3105 2SM +TSRA BR BKN015CB
     FM310500 18003KT 4SM -SHRA BR VCTS SCT015 BKN025CB OVC040=



000
FTUS43 KJKL 310100 AAA
TAFSME
TAF AMD
KSME 310150Z 3102/3124 VRB03KT 6SM -SHRA BR VCTS SCT015 BKN040CB
      BKN080
      TEMPO 3102/3104 4SM TSRA BR BKN015CB
     FM310600 18003KT 4SM -SHRA BR VCTS SCT015 BKN025CB OVC040=



000
FTUS43 KJKL 302300
TAFSME
TAF
KSME 302323Z 3100/3124 VRB03KT P6SM VCTS SCT040CB BKN080
      TEMPO 3100/3104 2SM +TSRA BR BKN025CB
     FM310400 18003KT 6SM -SHRA BR VCTS BKN040CB OVC080
     FM310600 18003KT 4SM -SHRA BR VCTS SCT015 BKN025CB OVC040=



000
FTUS43 KJKL 302300
TAFJKL
TAF
KJKL 302323Z 3100/3124 VRB03KT P6SM VCSH SCT050 BKN100
     FM310600 19003KT 6SM -SHRA BR VCTS BKN040CB OVC080
     FM310800 19003KT 4SM -SHRA BR VCTS SCT015 BKN025CB OVC040=



000
FTUS43 KJKL 302300
TAFLOZ
TAF
KLOZ 302323Z 3100/3124 VRB03KT P6SM VCTS SCT040CB BKN080
     FM310400 18003KT 6SM -SHRA BR VCTS BKN040CB OVC080
     FM310600 18003KT 4SM -SHRA BR VCTS SCT015 BKN025CB OVC040=



    US Dept of Commerce
    National Oceanic and Atmospheric Administration
    National Weather Service
    1325 East West Highway
    Silver Spring, MD 20910
    Page Author: NWS Internet Services Team
Disclaimer
Information Quality
Credits
Glossary
Privacy Policy
Freedom of Information Act (FOIA)
About Us
Career Opportunities